This is the latest recevied weather packets stored in our database for station/object KB4RFE. If no packets are shown the sender has not sent any weather packets the latest 1 day(s).
| Time | Temp. | Humidity | Pressure | Rain* | Wind** | Luminosity | Snow |
|---|---|---|---|---|---|---|---|
| 1778105294 | 24.44° C | 79% | 1017.1 hPa | 0 mm | - | 71 W/m² | - |
| 1778103478 | 24.44° C | 79% | 1017.4 hPa | 0 mm | - | 322 W/m² | - |
| 1778102872 | 25° C | 77% | 1017.3 hPa | 0 mm | - | 407 W/m² | - |
| 1778098929 | 25.56° C | 73% | 1017.7 hPa | 0 mm | - | 643 W/m² | - |
| 1778097413 | 25.56° C | 75% | 1018 hPa | 0 mm | - | 709 W/m² | - |
| 1778097109 | 25.56° C | 74% | 1017.9 hPa | 0 mm | - | 739 W/m² | - |
| 1778096807 | 25.56° C | 73% | 1017.9 hPa | 0 mm | - | 759 W/m² | - |
| 1778096201 | 25.56° C | 74% | 1018 hPa | 0 mm | - | 372 W/m² | - |
| 1778093775 | 26.11° C | 72% | 1018.5 hPa | 0 mm | - | 982 W/m² | - |
| 1778091351 | 25.56° C | 74% | 1019 hPa | 0 mm | - | 910 W/m² | - |
| 1778090744 | 25.56° C | 75% | 1018.9 hPa | 0 mm | - | 818 W/m² | - |
| 1778090137 | 25.56° C | 75% | 1019.3 hPa | 0 mm | - | 973 W/m² | - |
| 1778089228 | 25° C | 76% | 1019.7 hPa | 0 mm | - | 733 W/m² | - |
| 1778088926 | 25° C | 75% | 1019.6 hPa | 0 mm | - | 419 W/m² | - |
| 1778088320 | 25.56° C | 74% | 1019.5 hPa | 0 mm | - | 476 W/m² | - |
| 1778088016 | 25.56° C | 72% | 1019.6 hPa | 0 mm | - | 542 W/m² | - |
| 1778087714 | 25.56° C | 73% | 1019.7 hPa | 0 mm | - | 864 W/m² | - |
| 1778087411 | 26.11° C | 73% | 1019.6 hPa | 0 mm | - | 826 W/m² | - |
| 1778086806 | 25.56° C | 71% | 1019.6 hPa | 0 mm | - | 878 W/m² | - |
| 1778083472 | 25.56° C | 73% | 1020 hPa | 0 mm | - | 449 W/m² | - |
| 1778082867 | 25° C | 72% | 1020 hPa | 0 mm | - | 652 W/m² | - |
| 1778079023 | 25° C | 71% | 1019.7 hPa | 0 mm | - | 723 W/m² | - |
| 1778078417 | 25° C | 72% | 1019.7 hPa | 0 mm | - | 696 W/m² | - |
| 1778077813 | 24.44° C | 73% | 1019.8 hPa | 0 mm | - | 545 W/m² | - |
| 1778077510 | 24.44° C | 74% | 1019.8 hPa | 0 mm | - | 452 W/m² | - |
* Rain latest hour (hover to see other rain measurements)
** Current wind speed in m/s (hover to see current wind gust speed)